Pingree, Idaho
Current Conditions -  °F | °C
As of 5:53 PM on Wednesday 17 Dec 2014 (Local Time) from KPIH Reporting Station
Clear Clear  
Wind Chill: 32°   Ceiling: Unl
Heat Index: 32°   Visibility: 10mi
Dew Point: 29°   Wind: 3mph
Humidity: 88%   Direction: 20°NNE
Pressure: 29.99"   Gusts: NA
Location:  43.12°N, 112.6°W
Report Text: KPIH 180053Z 02003KT 10SM CLR 00/M02 A2999 RMK AO2 SLP183 T00001017
Loading
Personal Weather Stations






























Interactive Weather Map New forecast layout! Learn more

10-Day Weather Forecast

Advertisements
Track Severe Weather on mobile